sensor_id;sensor_type;location;lat;lon;timestamp;P1;durP1;ratioP1;P2;durP2;ratioP2
75655;SDS011;64252;51.094;13.714;2023-02-25T00:00:10;8.75;;;4.20;;
75655;SDS011;64252;51.094;13.714;2023-02-25T00:02:42;5.97;;;3.08;;
75655;SDS011;64252;51.094;13.714;2023-02-25T00:05:09;8.13;;;4.22;;
75655;SDS011;64252;51.094;13.714;2023-02-25T00:07:34;7.55;;;3.97;;
75655;SDS011;64252;51.094;13.714;2023-02-25T00:10:00;8.02;;;3.50;;
75655;SDS011;64252;51.094;13.714;2023-02-25T00:12:26;7.78;;;4.38;;
75655;SDS011;64252;51.094;13.714;2023-02-25T00:14:53;10.27;;;4.50;;
75655;SDS011;64252;51.094;13.714;2023-02-25T00:17:18;7.70;;;3.95;;
75655;SDS011;64252;51.094;13.714;2023-02-25T00:19:44;7.20;;;3.85;;
75655;SDS011;64252;51.094;13.714;2023-02-25T00:22:10;10.05;;;4.07;;
75655;SDS011;64252;51.094;13.714;2023-02-25T00:24:36;8.23;;;4.45;;
75655;SDS011;64252;51.094;13.714;2023-02-25T00:27:02;12.65;;;5.93;;
75655;SDS011;64252;51.094;13.714;2023-02-25T00:29:28;9.73;;;5.22;;
75655;SDS011;64252;51.094;13.714;2023-02-25T00:31:54;14.77;;;7.25;;
75655;SDS011;64252;51.094;13.714;2023-02-25T00:34:20;13.45;;;6.90;;
75655;SDS011;64252;51.094;13.714;2023-02-25T00:36:45;14.77;;;8.25;;
75655;SDS011;64252;51.094;13.714;2023-02-25T00:39:11;12.43;;;6.25;;
75655;SDS011;64252;51.094;13.714;2023-02-25T00:41:37;13.73;;;7.13;;
75655;SDS011;64252;51.094;13.714;2023-02-25T00:44:03;15.35;;;8.77;;
75655;SDS011;64252;51.094;13.714;2023-02-25T00:46:30;14.88;;;7.32;;
75655;SDS011;64252;51.094;13.714;2023-02-25T00:48:57;14.10;;;8.05;;
75655;SDS011;64252;51.094;13.714;2023-02-25T00:51:25;14.60;;;8.07;;
75655;SDS011;64252;51.094;13.714;2023-02-25T00:53:52;11.93;;;5.47;;
75655;SDS011;64252;51.094;13.714;2023-02-25T00:56:20;13.68;;;5.57;;
75655;SDS011;64252;51.094;13.714;2023-02-25T00:58:48;10.40;;;5.28;;
75655;SDS011;64252;51.094;13.714;2023-02-25T01:01:25;12.90;;;5.22;;
75655;SDS011;64252;51.094;13.714;2023-02-25T01:03:52;9.85;;;4.35;;
75655;SDS011;64252;51.094;13.714;2023-02-25T01:06:20;10.23;;;5.45;;
75655;SDS011;64252;51.094;13.714;2023-02-25T01:08:47;10.40;;;4.90;;
75655;SDS011;64252;51.094;13.714;2023-02-25T01:11:14;11.10;;;5.00;;
75655;SDS011;64252;51.094;13.714;2023-02-25T01:13:46;12.90;;;5.03;;
75655;SDS011;64252;51.094;13.714;2023-02-25T01:16:17;15.55;;;6.00;;
75655;SDS011;64252;51.094;13.714;2023-02-25T01:18:44;13.18;;;6.63;;
75655;SDS011;64252;51.094;13.714;2023-02-25T01:21:14;11.75;;;5.10;;
75655;SDS011;64252;51.094;13.714;2023-02-25T01:23:46;13.00;;;5.97;;
75655;SDS011;64252;51.094;13.714;2023-02-25T01:26:13;13.95;;;6.60;;
75655;SDS011;64252;51.094;13.714;2023-02-25T01:28:39;27.60;;;10.18;;
75655;SDS011;64252;51.094;13.714;2023-02-25T01:31:05;16.55;;;7.00;;
75655;SDS011;64252;51.094;13.714;2023-02-25T01:33:33;16.75;;;6.57;;
75655;SDS011;64252;51.094;13.714;2023-02-25T01:36:04;11.32;;;4.47;;
75655;SDS011;64252;51.094;13.714;2023-02-25T01:38:31;13.02;;;5.97;;
75655;SDS011;64252;51.094;13.714;2023-02-25T01:40:57;9.25;;;3.67;;
75655;SDS011;64252;51.094;13.714;2023-02-25T01:43:25;11.30;;;4.93;;
75655;SDS011;64252;51.094;13.714;2023-02-25T01:45:52;10.48;;;4.63;;
75655;SDS011;64252;51.094;13.714;2023-02-25T01:48:32;8.95;;;3.50;;
75655;SDS011;64252;51.094;13.714;2023-02-25T01:51:02;9.13;;;3.97;;
75655;SDS011;64252;51.094;13.714;2023-02-25T01:53:34;9.68;;;3.78;;
75655;SDS011;64252;51.094;13.714;2023-02-25T01:56:04;8.15;;;3.70;;
75655;SDS011;64252;51.094;13.714;2023-02-25T01:58:32;9.30;;;3.75;;
75655;SDS011;64252;51.094;13.714;2023-02-25T02:00:59;8.48;;;3.22;;
75655;SDS011;64252;51.094;13.714;2023-02-25T02:03:25;10.20;;;3.25;;
75655;SDS011;64252;51.094;13.714;2023-02-25T02:08:23;8.88;;;3.40;;
75655;SDS011;64252;51.094;13.714;2023-02-25T02:10:53;16.02;;;3.35;;
75655;SDS011;64252;51.094;13.714;2023-02-25T02:13:20;7.93;;;3.17;;
75655;SDS011;64252;51.094;13.714;2023-02-25T02:16:12;10.70;;;3.28;;
75655;SDS011;64252;51.094;13.714;2023-02-25T02:18:32;11.48;;;3.38;;
75655;SDS011;64252;51.094;13.714;2023-02-25T02:24:17;8.65;;;3.17;;
75655;SDS011;64252;51.094;13.714;2023-02-25T02:27:03;9.38;;;2.83;;
75655;SDS011;64252;51.094;13.714;2023-02-25T02:35:03;10.70;;;3.33;;
75655;SDS011;64252;51.094;13.714;2023-02-25T02:38:10;10.10;;;3.10;;
75655;SDS011;64252;51.094;13.714;2023-02-25T02:41:02;6.15;;;2.42;;
75655;SDS011;64252;51.094;13.714;2023-02-25T02:46:23;7.40;;;2.38;;
75655;SDS011;64252;51.094;13.714;2023-02-25T02:48:55;8.50;;;2.50;;
75655;SDS011;64252;51.094;13.714;2023-02-25T02:51:31;6.90;;;2.20;;
75655;SDS011;64252;51.094;13.714;2023-02-25T02:54:01;5.25;;;1.90;;
75655;SDS011;64252;51.094;13.714;2023-02-25T02:56:31;8.90;;;1.88;;
75655;SDS011;64252;51.094;13.714;2023-02-25T02:59:06;7.80;;;2.38;;
75655;SDS011;64252;51.094;13.714;2023-02-25T03:01:50;7.22;;;2.42;;
75655;SDS011;64252;51.094;13.714;2023-02-25T03:04:20;8.57;;;1.98;;
75655;SDS011;64252;51.094;13.714;2023-02-25T03:06:54;8.55;;;2.13;;
75655;SDS011;64252;51.094;13.714;2023-02-25T03:09:31;5.28;;;1.55;;
75655;SDS011;64252;51.094;13.714;2023-02-25T03:12:00;6.90;;;1.75;;
75655;SDS011;64252;51.094;13.714;2023-02-25T03:14:28;7.00;;;1.40;;
75655;SDS011;64252;51.094;13.714;2023-02-25T03:19:43;5.32;;;1.10;;
75655;SDS011;64252;51.094;13.714;2023-02-25T03:22:30;6.72;;;1.30;;
75655;SDS011;64252;51.094;13.714;2023-02-25T03:27:43;3.58;;;1.27;;
75655;SDS011;64252;51.094;13.714;2023-02-25T03:30:29;5.57;;;1.42;;
75655;SDS011;64252;51.094;13.714;2023-02-25T03:33:07;4.53;;;0.90;;
75655;SDS011;64252;51.094;13.714;2023-02-25T03:35:39;4.22;;;0.95;;
75655;SDS011;64252;51.094;13.714;2023-02-25T03:38:08;12.48;;;1.80;;
75655;SDS011;64252;51.094;13.714;2023-02-25T03:40:39;3.53;;;1.05;;
75655;SDS011;64252;51.094;13.714;2023-02-25T03:43:11;6.05;;;1.02;;
75655;SDS011;64252;51.094;13.714;2023-02-25T03:45:45;3.97;;;1.00;;
75655;SDS011;64252;51.094;13.714;2023-02-25T03:48:11;4.88;;;1.35;;
75655;SDS011;64252;51.094;13.714;2023-02-25T03:50:45;5.50;;;1.38;;
75655;SDS011;64252;51.094;13.714;2023-02-25T03:53:15;7.32;;;1.50;;
75655;SDS011;64252;51.094;13.714;2023-02-25T03:55:54;6.25;;;1.38;;
75655;SDS011;64252;51.094;13.714;2023-02-25T03:58:21;8.48;;;1.50;;
75655;SDS011;64252;51.094;13.714;2023-02-25T04:00:49;6.40;;;1.35;;
75655;SDS011;64252;51.094;13.714;2023-02-25T04:03:23;6.93;;;1.20;;
75655;SDS011;64252;51.094;13.714;2023-02-25T04:05:48;8.80;;;1.60;;
75655;SDS011;64252;51.094;13.714;2023-02-25T04:08:14;4.70;;;1.20;;
75655;SDS011;64252;51.094;13.714;2023-02-25T04:10:41;6.22;;;1.60;;
75655;SDS011;64252;51.094;13.714;2023-02-25T04:13:09;8.75;;;1.77;;
75655;SDS011;64252;51.094;13.714;2023-02-25T04:15:35;9.32;;;1.70;;
75655;SDS011;64252;51.094;13.714;2023-02-25T04:18:01;5.13;;;1.30;;
75655;SDS011;64252;51.094;13.714;2023-02-25T04:20:27;9.05;;;1.30;;
75655;SDS011;64252;51.094;13.714;2023-02-25T04:22:57;5.38;;;1.30;;
75655;SDS011;64252;51.094;13.714;2023-02-25T04:25:24;8.50;;;1.45;;
75655;SDS011;64252;51.094;13.714;2023-02-25T04:27:51;5.85;;;1.40;;
75655;SDS011;64252;51.094;13.714;2023-02-25T04:30:17;8.57;;;1.75;;
75655;SDS011;64252;51.094;13.714;2023-02-25T04:32:43;5.35;;;1.45;;
75655;SDS011;64252;51.094;13.714;2023-02-25T04:35:08;4.65;;;1.25;;
75655;SDS011;64252;51.094;13.714;2023-02-25T04:37:38;6.85;;;1.33;;
75655;SDS011;64252;51.094;13.714;2023-02-25T04:40:05;5.28;;;1.50;;
75655;SDS011;64252;51.094;13.714;2023-02-25T04:42:38;2.38;;;0.95;;
75655;SDS011;64252;51.094;13.714;2023-02-25T04:45:05;3.03;;;0.93;;
75655;SDS011;64252;51.094;13.714;2023-02-25T04:47:32;3.22;;;1.10;;
75655;SDS011;64252;51.094;13.714;2023-02-25T04:49:57;3.30;;;1.25;;
75655;SDS011;64252;51.094;13.714;2023-02-25T04:52:23;2.60;;;1.00;;
75655;SDS011;64252;51.094;13.714;2023-02-25T04:54:49;5.03;;;1.20;;
75655;SDS011;64252;51.094;13.714;2023-02-25T04:57:15;3.13;;;0.88;;
75655;SDS011;64252;51.094;13.714;2023-02-25T04:59:40;4.63;;;1.02;;
75655;SDS011;64252;51.094;13.714;2023-02-25T05:02:06;2.67;;;0.90;;
75655;SDS011;64252;51.094;13.714;2023-02-25T05:04:33;2.80;;;1.13;;
75655;SDS011;64252;51.094;13.714;2023-02-25T05:07:02;3.30;;;1.10;;
75655;SDS011;64252;51.094;13.714;2023-02-25T05:09:29;3.55;;;1.42;;
75655;SDS011;64252;51.094;13.714;2023-02-25T05:11:55;2.33;;;0.85;;
75655;SDS011;64252;51.094;13.714;2023-02-25T05:14:20;4.07;;;1.05;;
75655;SDS011;64252;51.094;13.714;2023-02-25T05:16:46;4.03;;;1.15;;
75655;SDS011;64252;51.094;13.714;2023-02-25T05:19:15;3.40;;;1.02;;
75655;SDS011;64252;51.094;13.714;2023-02-25T05:21:41;5.25;;;1.95;;
75655;SDS011;64252;51.094;13.714;2023-02-25T05:24:09;3.72;;;1.70;;
75655;SDS011;64252;51.094;13.714;2023-02-25T05:26:36;3.08;;;1.20;;
75655;SDS011;64252;51.094;13.714;2023-02-25T05:29:02;3.83;;;1.25;;
75655;SDS011;64252;51.094;13.714;2023-02-25T05:31:27;3.78;;;1.35;;
75655;SDS011;64252;51.094;13.714;2023-02-25T05:33:53;4.38;;;1.55;;
75655;SDS011;64252;51.094;13.714;2023-02-25T05:36:19;2.30;;;1.00;;
75655;SDS011;64252;51.094;13.714;2023-02-25T05:38:44;2.30;;;1.05;;
75655;SDS011;64252;51.094;13.714;2023-02-25T05:41:10;2.50;;;1.02;;
75655;SDS011;64252;51.094;13.714;2023-02-25T05:43:37;3.00;;;1.08;;
75655;SDS011;64252;51.094;13.714;2023-02-25T05:46:04;2.70;;;1.20;;
75655;SDS011;64252;51.094;13.714;2023-02-25T05:48:33;3.13;;;1.50;;
75655;SDS011;64252;51.094;13.714;2023-02-25T05:51:02;2.80;;;1.30;;
75655;SDS011;64252;51.094;13.714;2023-02-25T05:53:33;3.00;;;1.30;;
75655;SDS011;64252;51.094;13.714;2023-02-25T05:56:02;2.88;;;1.17;;
75655;SDS011;64252;51.094;13.714;2023-02-25T05:58:29;2.30;;;0.88;;
75655;SDS011;64252;51.094;13.714;2023-02-25T06:00:54;2.63;;;1.02;;
75655;SDS011;64252;51.094;13.714;2023-02-25T06:03:20;2.60;;;1.10;;
75655;SDS011;64252;51.094;13.714;2023-02-25T06:05:45;2.55;;;1.13;;
75655;SDS011;64252;51.094;13.714;2023-02-25T06:08:11;4.47;;;1.40;;
75655;SDS011;64252;51.094;13.714;2023-02-25T06:10:38;3.67;;;1.38;;
75655;SDS011;64252;51.094;13.714;2023-02-25T06:13:04;2.70;;;1.33;;
75655;SDS011;64252;51.094;13.714;2023-02-25T06:15:31;3.30;;;1.63;;
75655;SDS011;64252;51.094;13.714;2023-02-25T06:17:57;3.00;;;1.17;;
75655;SDS011;64252;51.094;13.714;2023-02-25T06:20:23;3.65;;;1.60;;
75655;SDS011;64252;51.094;13.714;2023-02-25T06:22:50;4.55;;;1.67;;
75655;SDS011;64252;51.094;13.714;2023-02-25T06:25:17;3.55;;;1.50;;
75655;SDS011;64252;51.094;13.714;2023-02-25T06:27:42;3.50;;;1.55;;
75655;SDS011;64252;51.094;13.714;2023-02-25T06:30:08;3.40;;;1.42;;
75655;SDS011;64252;51.094;13.714;2023-02-25T06:32:34;3.10;;;1.65;;
75655;SDS011;64252;51.094;13.714;2023-02-25T06:35:00;4.35;;;1.65;;
75655;SDS011;64252;51.094;13.714;2023-02-25T06:37:26;5.38;;;1.67;;
75655;SDS011;64252;51.094;13.714;2023-02-25T06:39:52;3.80;;;1.98;;
75655;SDS011;64252;51.094;13.714;2023-02-25T06:42:18;7.18;;;2.17;;
75655;SDS011;64252;51.094;13.714;2023-02-25T06:44:44;4.70;;;2.20;;
75655;SDS011;64252;51.094;13.714;2023-02-25T06:47:09;4.65;;;2.00;;
75655;SDS011;64252;51.094;13.714;2023-02-25T06:49:35;3.70;;;1.92;;
75655;SDS011;64252;51.094;13.714;2023-02-25T06:52:02;4.18;;;2.15;;
75655;SDS011;64252;51.094;13.714;2023-02-25T06:54:28;4.28;;;2.00;;
75655;SDS011;64252;51.094;13.714;2023-02-25T06:56:53;7.60;;;2.10;;
75655;SDS011;64252;51.094;13.714;2023-02-25T06:59:20;3.22;;;1.70;;
75655;SDS011;64252;51.094;13.714;2023-02-25T07:01:45;4.95;;;1.98;;
75655;SDS011;64252;51.094;13.714;2023-02-25T07:04:15;5.13;;;1.80;;
75655;SDS011;64252;51.094;13.714;2023-02-25T07:06:42;4.25;;;1.95;;
75655;SDS011;64252;51.094;13.714;2023-02-25T07:09:08;4.25;;;1.70;;
75655;SDS011;64252;51.094;13.714;2023-02-25T07:11:34;3.65;;;1.90;;
75655;SDS011;64252;51.094;13.714;2023-02-25T07:14:04;5.57;;;1.92;;
75655;SDS011;64252;51.094;13.714;2023-02-25T07:16:31;5.53;;;1.77;;
75655;SDS011;64252;51.094;13.714;2023-02-25T07:18:58;4.88;;;1.67;;
75655;SDS011;64252;51.094;13.714;2023-02-25T07:21:28;4.68;;;1.83;;
75655;SDS011;64252;51.094;13.714;2023-02-25T07:23:56;4.30;;;1.75;;
75655;SDS011;64252;51.094;13.714;2023-02-25T07:26:23;3.72;;;1.35;;
75655;SDS011;64252;51.094;13.714;2023-02-25T07:28:53;5.47;;;1.75;;
75655;SDS011;64252;51.094;13.714;2023-02-25T07:31:22;4.15;;;1.30;;
75655;SDS011;64252;51.094;13.714;2023-02-25T07:33:49;3.55;;;1.80;;
75655;SDS011;64252;51.094;13.714;2023-02-25T07:36:16;3.97;;;1.65;;
75655;SDS011;64252;51.094;13.714;2023-02-25T07:38:42;4.68;;;1.50;;
75655;SDS011;64252;51.094;13.714;2023-02-25T07:41:10;4.05;;;1.35;;
75655;SDS011;64252;51.094;13.714;2023-02-25T07:43:36;6.10;;;1.92;;
75655;SDS011;64252;51.094;13.714;2023-02-25T07:46:02;5.40;;;1.63;;
75655;SDS011;64252;51.094;13.714;2023-02-25T07:48:28;6.63;;;2.60;;
75655;SDS011;64252;51.094;13.714;2023-02-25T07:50:54;3.97;;;1.42;;
75655;SDS011;64252;51.094;13.714;2023-02-25T07:53:20;4.97;;;1.80;;
75655;SDS011;64252;51.094;13.714;2023-02-25T07:55:47;5.18;;;2.20;;
75655;SDS011;64252;51.094;13.714;2023-02-25T07:58:14;5.07;;;2.25;;
75655;SDS011;64252;51.094;13.714;2023-02-25T08:00:40;3.70;;;1.63;;
75655;SDS011;64252;51.094;13.714;2023-02-25T08:03:06;4.95;;;1.98;;
75655;SDS011;64252;51.094;13.714;2023-02-25T08:05:35;6.28;;;2.67;;
75655;SDS011;64252;51.094;13.714;2023-02-25T08:08:02;6.10;;;2.03;;
75655;SDS011;64252;51.094;13.714;2023-02-25T08:10:29;6.50;;;3.10;;
75655;SDS011;64252;51.094;13.714;2023-02-25T08:12:54;7.68;;;2.55;;
75655;SDS011;64252;51.094;13.714;2023-02-25T08:15:20;8.27;;;4.22;;
75655;SDS011;64252;51.094;13.714;2023-02-25T08:17:45;6.63;;;2.80;;
75655;SDS011;64252;51.094;13.714;2023-02-25T08:20:16;6.32;;;2.90;;
75655;SDS011;64252;51.094;13.714;2023-02-25T08:22:42;5.20;;;2.30;;
75655;SDS011;64252;51.094;13.714;2023-02-25T08:25:07;5.20;;;2.67;;
75655;SDS011;64252;51.094;13.714;2023-02-25T08:27:34;4.20;;;2.30;;
75655;SDS011;64252;51.094;13.714;2023-02-25T08:30:00;6.28;;;3.25;;
75655;SDS011;64252;51.094;13.714;2023-02-25T08:32:26;13.23;;;5.85;;
75655;SDS011;64252;51.094;13.714;2023-02-25T08:34:52;16.80;;;9.13;;
75655;SDS011;64252;51.094;13.714;2023-02-25T08:37:18;18.65;;;9.32;;
75655;SDS011;64252;51.094;13.714;2023-02-25T08:39:43;19.10;;;8.25;;
75655;SDS011;64252;51.094;13.714;2023-02-25T08:42:09;7.63;;;3.42;;
75655;SDS011;64252;51.094;13.714;2023-02-25T08:44:43;9.13;;;3.50;;
75655;SDS011;64252;51.094;13.714;2023-02-25T08:47:09;7.20;;;2.83;;
75655;SDS011;64252;51.094;13.714;2023-02-25T08:49:34;6.25;;;2.40;;
75655;SDS011;64252;51.094;13.714;2023-02-25T08:52:00;5.57;;;2.63;;
75655;SDS011;64252;51.094;13.714;2023-02-25T08:54:25;4.38;;;2.25;;
75655;SDS011;64252;51.094;13.714;2023-02-25T08:56:51;7.70;;;2.70;;
75655;SDS011;64252;51.094;13.714;2023-02-25T08:59:20;3.63;;;1.88;;
75655;SDS011;64252;51.094;13.714;2023-02-25T09:01:46;4.40;;;1.90;;
75655;SDS011;64252;51.094;13.714;2023-02-25T09:04:17;4.18;;;1.58;;
75655;SDS011;64252;51.094;13.714;2023-02-25T09:06:47;5.70;;;1.90;;
75655;SDS011;64252;51.094;13.714;2023-02-25T09:09:14;5.50;;;1.88;;
75655;SDS011;64252;51.094;13.714;2023-02-25T09:11:41;5.28;;;2.15;;
75655;SDS011;64252;51.094;13.714;2023-02-25T09:14:07;7.10;;;2.10;;
75655;SDS011;64252;51.094;13.714;2023-02-25T09:16:32;7.78;;;3.00;;
75655;SDS011;64252;51.094;13.714;2023-02-25T09:18:58;7.13;;;1.90;;
75655;SDS011;64252;51.094;13.714;2023-02-25T09:21:24;5.28;;;1.95;;
75655;SDS011;64252;51.094;13.714;2023-02-25T09:23:51;8.15;;;2.33;;
75655;SDS011;64252;51.094;13.714;2023-02-25T09:26:17;4.05;;;1.10;;
75655;SDS011;64252;51.094;13.714;2023-02-25T09:28:43;5.22;;;1.55;;
75655;SDS011;64252;51.094;13.714;2023-02-25T09:31:10;4.25;;;1.17;;
75655;SDS011;64252;51.094;13.714;2023-02-25T09:33:36;5.53;;;1.90;;
75655;SDS011;64252;51.094;13.714;2023-02-25T09:36:05;11.23;;;3.35;;
75655;SDS011;64252;51.094;13.714;2023-02-25T09:38:36;7.18;;;3.03;;
75655;SDS011;64252;51.094;13.714;2023-02-25T09:41:03;6.45;;;2.30;;
75655;SDS011;64252;51.094;13.714;2023-02-25T09:43:44;4.75;;;1.77;;
75655;SDS011;64252;51.094;13.714;2023-02-25T09:46:12;6.32;;;2.10;;
75655;SDS011;64252;51.094;13.714;2023-02-25T09:51:35;6.32;;;1.95;;
75655;SDS011;64252;51.094;13.714;2023-02-25T09:54:12;4.85;;;1.23;;
75655;SDS011;64252;51.094;13.714;2023-02-25T09:56:39;7.28;;;1.20;;
75655;SDS011;64252;51.094;13.714;2023-02-25T09:59:07;4.65;;;1.50;;
75655;SDS011;64252;51.094;13.714;2023-02-25T10:01:41;7.45;;;1.50;;
75655;SDS011;64252;51.094;13.714;2023-02-25T10:04:28;5.57;;;1.50;;
75655;SDS011;64252;51.094;13.714;2023-02-25T10:07:21;6.10;;;1.83;;
75655;SDS011;64252;51.094;13.714;2023-02-25T10:09:55;6.35;;;1.63;;
75655;SDS011;64252;51.094;13.714;2023-02-25T10:12:30;4.72;;;1.50;;
75655;SDS011;64252;51.094;13.714;2023-02-25T10:18:03;3.13;;;1.00;;
75655;SDS011;64252;51.094;13.714;2023-02-25T10:25:43;9.65;;;1.98;;
75655;SDS011;64252;51.094;13.714;2023-02-25T10:28:20;3.97;;;1.25;;
75655;SDS011;64252;51.094;13.714;2023-02-25T10:30:56;6.35;;;1.35;;
75655;SDS011;64252;51.094;13.714;2023-02-25T10:33:30;4.60;;;1.33;;
75655;SDS011;64252;51.094;13.714;2023-02-25T10:38:41;4.40;;;1.30;;
75655;SDS011;64252;51.094;13.714;2023-02-25T10:41:10;3.67;;;1.15;;
75655;SDS011;64252;51.094;13.714;2023-02-25T10:43:36;4.45;;;1.50;;
75655;SDS011;64252;51.094;13.714;2023-02-25T10:46:03;4.15;;;1.10;;
75655;SDS011;64252;51.094;13.714;2023-02-25T10:48:35;3.17;;;1.02;;
75655;SDS011;64252;51.094;13.714;2023-02-25T10:51:12;3.85;;;1.02;;
75655;SDS011;64252;51.094;13.714;2023-02-25T10:53:40;2.80;;;0.93;;
75655;SDS011;64252;51.094;13.714;2023-02-25T10:56:27;2.22;;;0.70;;
75655;SDS011;64252;51.094;13.714;2023-02-25T10:59:02;2.35;;;0.90;;
75655;SDS011;64252;51.094;13.714;2023-02-25T11:01:39;3.03;;;1.05;;
75655;SDS011;64252;51.094;13.714;2023-02-25T11:04:10;2.15;;;0.90;;
75655;SDS011;64252;51.094;13.714;2023-02-25T11:06:39;2.40;;;0.93;;
75655;SDS011;64252;51.094;13.714;2023-02-25T11:11:53;4.32;;;1.33;;
75655;SDS011;64252;51.094;13.714;2023-02-25T11:14:24;2.53;;;1.02;;
75655;SDS011;64252;51.094;13.714;2023-02-25T11:17:12;3.17;;;0.90;;
75655;SDS011;64252;51.094;13.714;2023-02-25T11:19:42;3.08;;;0.85;;
75655;SDS011;64252;51.094;13.714;2023-02-25T11:22:18;4.18;;;0.90;;
75655;SDS011;64252;51.094;13.714;2023-02-25T11:25:20;2.40;;;1.00;;
75655;SDS011;64252;51.094;13.714;2023-02-25T11:27:41;3.80;;;1.20;;
75655;SDS011;64252;51.094;13.714;2023-02-25T11:32:51;3.53;;;1.13;;
75655;SDS011;64252;51.094;13.714;2023-02-25T11:37:48;3.65;;;1.35;;
75655;SDS011;64252;51.094;13.714;2023-02-25T11:40:22;3.95;;;1.20;;
75655;SDS011;64252;51.094;13.714;2023-02-25T11:45:33;4.93;;;1.35;;
75655;SDS011;64252;51.094;13.714;2023-02-25T11:48:03;2.92;;;1.10;;
75655;SDS011;64252;51.094;13.714;2023-02-25T11:56:37;4.32;;;1.75;;
75655;SDS011;64252;51.094;13.714;2023-02-25T11:59:13;6.72;;;2.78;;
75655;SDS011;64252;51.094;13.714;2023-02-25T12:05:09;3.35;;;1.60;;
75655;SDS011;64252;51.094;13.714;2023-02-25T12:10:43;4.32;;;1.40;;
75655;SDS011;64252;51.094;13.714;2023-02-25T12:21:55;3.72;;;1.38;;
75655;SDS011;64252;51.094;13.714;2023-02-25T12:24:38;4.22;;;1.33;;
75655;SDS011;64252;51.094;13.714;2023-02-25T12:33:10;4.03;;;1.27;;
75655;SDS011;64252;51.094;13.714;2023-02-25T12:41:45;2.95;;;0.80;;
75655;SDS011;64252;51.094;13.714;2023-02-25T12:47:30;5.28;;;2.10;;
75655;SDS011;64252;51.094;13.714;2023-02-25T13:09:30;2.45;;;1.02;;
75655;SDS011;64252;51.094;13.714;2023-02-25T13:34:21;2.13;;;0.80;;
75655;SDS011;64252;51.094;13.714;2023-02-25T13:51:44;2.58;;;0.85;;
75655;SDS011;64252;51.094;13.714;2023-02-25T14:00:35;2.45;;;0.70;;
75655;SDS011;64252;51.094;13.714;2023-02-25T14:22:23;2.95;;;1.10;;
75655;SDS011;64252;51.094;13.714;2023-02-25T14:37:12;0.95;;;0.32;;
75655;SDS011;64252;51.094;13.714;2023-02-25T14:56:03;1.05;;;0.40;;
75655;SDS011;64252;51.094;13.714;2023-02-25T15:01:54;2.67;;;0.85;;
75655;SDS011;64252;51.094;13.714;2023-02-25T15:08:07;1.77;;;0.60;;
75655;SDS011;64252;51.094;13.714;2023-02-25T15:22:10;4.85;;;1.40;;
75655;SDS011;64252;51.094;13.714;2023-02-25T15:24:43;6.32;;;1.30;;
75655;SDS011;64252;51.094;13.714;2023-02-25T15:29:59;2.60;;;0.77;;
75655;SDS011;64252;51.094;13.714;2023-02-25T15:32:29;1.67;;;0.50;;
75655;SDS011;64252;51.094;13.714;2023-02-25T15:35:14;4.97;;;1.50;;
75655;SDS011;64252;51.094;13.714;2023-02-25T15:42:47;2.15;;;0.63;;
75655;SDS011;64252;51.094;13.714;2023-02-25T15:53:35;2.45;;;0.60;;
75655;SDS011;64252;51.094;13.714;2023-02-25T16:06:04;2.45;;;0.50;;
75655;SDS011;64252;51.094;13.714;2023-02-25T16:13:59;0.95;;;0.30;;
75655;SDS011;64252;51.094;13.714;2023-02-25T16:16:31;1.38;;;0.40;;
75655;SDS011;64252;51.094;13.714;2023-02-25T16:18:57;1.00;;;0.40;;
75655;SDS011;64252;51.094;13.714;2023-02-25T16:21:29;2.00;;;0.63;;
75655;SDS011;64252;51.094;13.714;2023-02-25T16:24:09;1.90;;;0.65;;
75655;SDS011;64252;51.094;13.714;2023-02-25T16:32:01;3.95;;;0.93;;
75655;SDS011;64252;51.094;13.714;2023-02-25T16:37:16;8.95;;;3.67;;
75655;SDS011;64252;51.094;13.714;2023-02-25T16:39:47;4.57;;;1.90;;
75655;SDS011;64252;51.094;13.714;2023-02-25T16:42:14;2.42;;;0.80;;
75655;SDS011;64252;51.094;13.714;2023-02-25T16:45:03;2.90;;;0.80;;
75655;SDS011;64252;51.094;13.714;2023-02-25T16:47:34;2.97;;;0.57;;
75655;SDS011;64252;51.094;13.714;2023-02-25T16:50:03;3.38;;;1.30;;
75655;SDS011;64252;51.094;13.714;2023-02-25T16:52:37;3.80;;;0.82;;
75655;SDS011;64252;51.094;13.714;2023-02-25T16:55:06;4.68;;;2.45;;
75655;SDS011;64252;51.094;13.714;2023-02-25T16:57:36;3.83;;;0.90;;
75655;SDS011;64252;51.094;13.714;2023-02-25T17:02:45;4.72;;;0.98;;
75655;SDS011;64252;51.094;13.714;2023-02-25T17:08:01;2.58;;;0.82;;
75655;SDS011;64252;51.094;13.714;2023-02-25T17:10:45;2.45;;;1.02;;
75655;SDS011;64252;51.094;13.714;2023-02-25T17:13:22;3.00;;;1.00;;
75655;SDS011;64252;51.094;13.714;2023-02-25T17:15:59;2.83;;;0.90;;
75655;SDS011;64252;51.094;13.714;2023-02-25T17:18:49;2.40;;;0.80;;
75655;SDS011;64252;51.094;13.714;2023-02-25T17:21:24;4.35;;;1.08;;
75655;SDS011;64252;51.094;13.714;2023-02-25T17:23:51;2.85;;;1.13;;
75655;SDS011;64252;51.094;13.714;2023-02-25T17:26:18;2.70;;;1.10;;
75655;SDS011;64252;51.094;13.714;2023-02-25T17:28:46;3.78;;;1.42;;
75655;SDS011;64252;51.094;13.714;2023-02-25T17:31:18;2.80;;;1.13;;
75655;SDS011;64252;51.094;13.714;2023-02-25T17:33:57;1.95;;;0.40;;
75655;SDS011;64252;51.094;13.714;2023-02-25T17:36:34;1.95;;;0.60;;
75655;SDS011;64252;51.094;13.714;2023-02-25T17:39:06;1.83;;;0.60;;
75655;SDS011;64252;51.094;13.714;2023-02-25T17:41:37;2.80;;;0.70;;
75655;SDS011;64252;51.094;13.714;2023-02-25T17:47:00;2.20;;;0.52;;
75655;SDS011;64252;51.094;13.714;2023-02-25T17:49:31;3.00;;;0.68;;
75655;SDS011;64252;51.094;13.714;2023-02-25T17:51:59;1.80;;;0.55;;
75655;SDS011;64252;51.094;13.714;2023-02-25T17:54:27;1.75;;;0.60;;
75655;SDS011;64252;51.094;13.714;2023-02-25T17:59:34;3.40;;;1.00;;
75655;SDS011;64252;51.094;13.714;2023-02-25T18:07:37;4.18;;;0.95;;
75655;SDS011;64252;51.094;13.714;2023-02-25T18:13:00;3.10;;;1.00;;
75655;SDS011;64252;51.094;13.714;2023-02-25T18:15:29;2.88;;;1.10;;
75655;SDS011;64252;51.094;13.714;2023-02-25T18:17:58;2.85;;;0.90;;
75655;SDS011;64252;51.094;13.714;2023-02-25T18:20:29;4.93;;;1.20;;
75655;SDS011;64252;51.094;13.714;2023-02-25T18:23:05;5.55;;;2.10;;
75655;SDS011;64252;51.094;13.714;2023-02-25T18:25:38;3.53;;;1.42;;
75655;SDS011;64252;51.094;13.714;2023-02-25T18:28:08;3.40;;;1.77;;
75655;SDS011;64252;51.094;13.714;2023-02-25T18:30:37;3.25;;;1.40;;
75655;SDS011;64252;51.094;13.714;2023-02-25T18:33:02;4.90;;;1.85;;
75655;SDS011;64252;51.094;13.714;2023-02-25T18:35:29;4.90;;;1.95;;
75655;SDS011;64252;51.094;13.714;2023-02-25T18:37:56;4.45;;;1.52;;
75655;SDS011;64252;51.094;13.714;2023-02-25T18:40:24;3.88;;;1.45;;
75655;SDS011;64252;51.094;13.714;2023-02-25T18:42:55;4.20;;;1.10;;
75655;SDS011;64252;51.094;13.714;2023-02-25T18:45:21;5.75;;;2.30;;
75655;SDS011;64252;51.094;13.714;2023-02-25T18:47:49;6.75;;;2.50;;
75655;SDS011;64252;51.094;13.714;2023-02-25T18:50:16;5.10;;;1.30;;
75655;SDS011;64252;51.094;13.714;2023-02-25T18:52:42;5.57;;;1.58;;
75655;SDS011;64252;51.094;13.714;2023-02-25T18:55:12;3.47;;;1.10;;
75655;SDS011;64252;51.094;13.714;2023-02-25T18:57:41;3.65;;;1.15;;
75655;SDS011;64252;51.094;13.714;2023-02-25T19:00:07;2.30;;;0.90;;
75655;SDS011;64252;51.094;13.714;2023-02-25T19:02:35;3.65;;;1.10;;
75655;SDS011;64252;51.094;13.714;2023-02-25T19:05:03;2.70;;;1.00;;
75655;SDS011;64252;51.094;13.714;2023-02-25T19:07:32;3.70;;;1.10;;
75655;SDS011;64252;51.094;13.714;2023-02-25T19:09:59;1.92;;;0.73;;
75655;SDS011;64252;51.094;13.714;2023-02-25T19:12:26;3.58;;;0.90;;
75655;SDS011;64252;51.094;13.714;2023-02-25T19:14:58;3.15;;;1.00;;